createdAt,value
2022-12-08T05:02:33.490Z,4.46
2022-12-08T05:05:00.213Z,4.52
2022-12-08T05:07:26.741Z,4.56
2022-12-08T05:09:53.994Z,4.56
2022-12-08T05:12:20.815Z,4.46
2022-12-08T05:14:48.522Z,4.26
2022-12-08T05:17:19.097Z,4.15
2022-12-08T05:19:46.088Z,4.01
2022-12-08T05:22:13.061Z,3.97
2022-12-08T05:24:45.583Z,3.98
2022-12-08T05:27:14.587Z,4.04
2022-12-08T05:29:41.318Z,4.06
2022-12-08T05:32:09.327Z,4.12
2022-12-08T05:34:36.403Z,4.09
2022-12-08T05:37:03.853Z,4.11
2022-12-08T05:39:32.085Z,4.12
2022-12-08T05:41:59.814Z,4.36
2022-12-08T05:44:26.872Z,4.38
2022-12-08T05:46:53.870Z,4.31
2022-12-08T05:49:21.130Z,4.23
2022-12-08T05:51:48.912Z,4.15
2022-12-08T05:54:15.740Z,4.15
2022-12-08T05:56:42.349Z,4.09
2022-12-08T05:59:09.707Z,4.16
2022-12-08T06:01:37.054Z,4.26
2022-12-08T06:04:04.623Z,4.42
2022-12-08T06:06:34.415Z,4.41
2022-12-08T06:09:06.416Z,4.43
2022-12-08T06:11:33.770Z,4.41
2022-12-08T06:14:01.062Z,4.56
2022-12-08T06:16:29.162Z,4.48
2022-12-08T06:18:56.621Z,4.46
2022-12-08T06:21:23.875Z,4.49
2022-12-08T06:23:53.024Z,4.52
2022-12-08T06:26:20.861Z,4.54
2022-12-08T06:28:47.859Z,4.73
2022-12-08T06:31:28.429Z,4.77
2022-12-08T06:33:55.869Z,4.80
2022-12-08T06:36:26.007Z,4.76
2022-12-08T06:38:52.855Z,4.67
2022-12-08T06:41:20.132Z,4.74
2022-12-08T06:43:46.717Z,4.69
2022-12-08T06:46:19.098Z,4.74
2022-12-08T06:48:46.115Z,4.67
2022-12-08T06:51:15.974Z,4.64
2022-12-08T06:53:43.581Z,4.56
2022-12-08T06:56:11.822Z,4.63
2022-12-08T06:58:39.175Z,4.49
2022-12-08T07:01:13.473Z,4.43
2022-12-08T07:03:41.120Z,4.18
2022-12-08T07:06:09.319Z,3.99
2022-12-08T07:08:36.040Z,4.04
2022-12-08T07:11:16.696Z,3.94
2022-12-08T07:13:48.014Z,3.81
2022-12-08T07:16:14.743Z,3.64
2022-12-08T07:18:43.361Z,3.54
2022-12-08T07:21:12.504Z,3.54
2022-12-08T07:23:39.366Z,3.39
2022-12-08T07:26:08.490Z,3.33
2022-12-08T07:28:37.462Z,3.37
2022-12-08T07:31:05.244Z,3.50
2022-12-08T07:33:33.093Z,3.43
2022-12-08T07:36:04.805Z,3.62
2022-12-08T07:38:34.969Z,3.60
2022-12-08T07:41:02.351Z,3.53
2022-12-08T07:43:29.850Z,3.54
2022-12-08T07:45:56.653Z,3.57
2022-12-08T07:48:23.708Z,3.47
2022-12-08T07:50:50.482Z,3.47
2022-12-08T07:53:17.339Z,3.53
2022-12-08T07:55:44.647Z,3.53
2022-12-08T07:58:11.639Z,3.60
2022-12-08T08:00:38.727Z,3.60
2022-12-08T08:03:06.442Z,3.59
2022-12-08T08:05:33.642Z,3.60
2022-12-08T08:08:00.377Z,3.59
2022-12-08T08:10:27.640Z,3.71
2022-12-08T08:12:59.197Z,3.77
2022-12-08T08:15:26.634Z,3.71
2022-12-08T08:17:53.769Z,3.80
2022-12-08T08:20:21.561Z,3.83
2022-12-08T08:22:50.532Z,3.80
2022-12-08T08:25:18.203Z,3.84
2022-12-08T08:27:45.566Z,3.87
2022-12-08T08:30:18.347Z,3.91
2022-12-08T08:32:48.025Z,3.98
2022-12-08T08:35:14.854Z,4.01
2022-12-08T08:37:45.730Z,4.02
2022-12-08T08:40:15.326Z,4.14
2022-12-08T08:42:41.880Z,4.19
2022-12-08T08:45:09.051Z,4.21
2022-12-08T08:47:35.969Z,4.23
2022-12-08T08:50:03.251Z,4.21
2022-12-08T08:52:30.401Z,4.28
2022-12-08T08:54:57.156Z,4.31
2022-12-08T08:57:25.950Z,4.53
2022-12-08T08:59:53.771Z,4.48
2022-12-08T09:02:21.484Z,4.45
2022-12-08T09:04:48.280Z,4.63
2022-12-08T09:07:15.828Z,4.70
2022-12-08T09:09:42.520Z,4.60
2022-12-08T09:12:10.151Z,4.59
2022-12-08T09:14:36.996Z,4.59
2022-12-08T09:17:04.043Z,4.74
2022-12-08T09:19:30.739Z,4.62
2022-12-08T09:21:57.600Z,4.52
2022-12-08T09:24:24.598Z,4.59
2022-12-08T09:26:51.662Z,4.60
2022-12-08T09:29:18.491Z,4.66
2022-12-08T09:31:45.437Z,4.74
2022-12-08T09:34:12.724Z,4.76
2022-12-08T09:36:40.096Z,4.79
2022-12-08T09:39:07.428Z,4.76
2022-12-08T09:41:51.894Z,4.85
2022-12-08T09:44:38.923Z,4.77
2022-12-08T09:47:16.174Z,4.88
2022-12-08T09:49:47.926Z,4.87
2022-12-08T09:52:45.995Z,4.79
2022-12-08T09:55:21.041Z,4.77
2022-12-08T09:57:57.826Z,4.74
2022-12-08T10:00:24.954Z,4.77
2022-12-08T10:02:52.008Z,4.59
2022-12-08T10:05:18.809Z,4.53
2022-12-08T10:07:54.657Z,4.50
2022-12-08T10:10:46.868Z,4.52
2022-12-08T10:13:23.647Z,4.57
2022-12-08T10:16:01.306Z,4.67
2022-12-08T10:18:31.653Z,4.74
2022-12-08T10:21:14.426Z,4.74
2022-12-08T10:23:45.169Z,4.74
2022-12-08T10:26:15.075Z,4.74
2022-12-08T10:28:45.791Z,4.77
2022-12-08T10:31:21.812Z,4.92
2022-12-08T10:33:55.396Z,5.01
2022-12-08T10:36:22.328Z,5.05
2022-12-08T10:38:48.921Z,4.97
2022-12-08T10:41:19.979Z,4.88
2022-12-08T10:43:53.390Z,4.83
2022-12-08T10:46:26.024Z,4.79
2022-12-08T10:48:54.303Z,4.74
2022-12-08T10:51:42.107Z,4.77
2022-12-08T10:54:29.279Z,4.74
2022-12-08T10:56:58.153Z,4.67
2022-12-08T10:59:28.014Z,4.67
2022-12-08T11:01:56.826Z,4.71
2022-12-08T11:04:31.486Z,4.81
2022-12-08T11:06:58.496Z,4.88
2022-12-08T11:09:48.980Z,4.90
2022-12-08T11:12:16.558Z,4.67
2022-12-08T11:14:43.747Z,4.56
2022-12-08T11:17:27.961Z,4.74
2022-12-08T11:20:02.435Z,4.67
2022-12-08T11:22:29.522Z,4.77
2022-12-08T11:25:00.900Z,4.76
2022-12-08T11:27:27.673Z,4.62
2022-12-08T11:29:54.333Z,4.80
2022-12-08T11:32:22.453Z,4.73
2022-12-08T11:34:58.100Z,4.79
2022-12-08T11:38:08.118Z,4.92
2022-12-08T11:40:45.021Z,5.07
2022-12-08T11:43:26.573Z,5.29
2022-12-08T11:46:00.385Z,5.24
2022-12-08T11:48:45.941Z,5.29
2022-12-08T11:51:19.919Z,5.34
2022-12-08T11:53:49.698Z,5.49
2022-12-08T11:56:25.690Z,5.35
2022-12-08T11:58:57.948Z,5.25
2022-12-08T12:01:26.958Z,5.31
2022-12-08T12:04:18.405Z,5.22
2022-12-08T12:07:06.204Z,5.12
2022-12-08T12:09:50.746Z,5.24
2022-12-08T12:12:25.327Z,5.11
2022-12-08T12:15:13.809Z,5.22
2022-12-08T12:18:04.065Z,5.29
2022-12-08T12:20:39.858Z,5.27
2022-12-08T12:23:21.184Z,5.11
2022-12-08T12:26:01.023Z,5.12
2022-12-08T12:28:41.104Z,5.02
2022-12-08T12:31:12.607Z,5.24
2022-12-08T12:33:39.582Z,5.20
2022-12-08T12:36:09.809Z,5.21
2022-12-08T12:39:03.598Z,5.28
2022-12-08T12:41:43.223Z,5.14
2022-12-08T12:44:24.812Z,5.35
2022-12-08T12:46:51.829Z,5.58
2022-12-08T12:49:40.736Z,5.71
2022-12-08T12:52:11.982Z,5.79
2022-12-08T12:54:43.198Z,5.73
2022-12-08T12:57:10.112Z,5.71
2022-12-08T12:59:56.012Z,5.69
2022-12-08T13:02:36.314Z,5.74
2022-12-08T13:05:11.555Z,5.63
2022-12-08T13:08:01.002Z,5.59
2022-12-08T13:10:34.508Z,5.25
2022-12-08T13:13:17.936Z,5.38
2022-12-08T13:16:20.258Z,5.27
2022-12-08T13:18:49.703Z,5.24
2022-12-08T13:21:21.320Z,5.35
2022-12-08T13:24:14.922Z,5.42
2022-12-08T13:27:11.219Z,5.28
2022-12-08T13:29:39.250Z,5.35
2022-12-08T13:32:09.779Z,5.25
2022-12-08T13:35:00.083Z,5.14
2022-12-08T13:37:54.615Z,5.10
2022-12-08T13:40:27.448Z,5.04
2022-12-08T13:43:18.334Z,4.95
2022-12-08T13:50:49.572Z,5.01
2022-12-08T13:56:05.408Z,5.00
2022-12-08T13:57:34.952Z,4.85
2022-12-08T14:00:08.742Z,4.90
2022-12-08T14:02:42.257Z,4.79
2022-12-08T14:05:19.407Z,4.80
2022-12-08T14:07:49.956Z,4.74
2022-12-08T14:10:22.466Z,4.73
2022-12-08T14:13:01.425Z,4.67
2022-12-08T14:15:37.163Z,4.74
2022-12-08T14:18:07.298Z,4.83
2022-12-08T14:20:57.883Z,4.77
2022-12-08T14:23:22.478Z,4.74
2022-12-08T14:25:49.469Z,4.73
2022-12-08T14:28:16.892Z,4.66
2022-12-08T14:30:43.828Z,4.70
2022-12-08T14:33:17.229Z,4.70
2022-12-08T14:35:51.237Z,4.52
2022-12-08T14:38:24.694Z,4.28
2022-12-08T14:41:04.477Z,4.38
2022-12-08T14:43:32.043Z,4.19
2022-12-08T14:46:19.884Z,4.19
2022-12-08T14:48:47.213Z,4.19
2022-12-08T14:51:19.617Z,4.23
2022-12-08T14:54:09.039Z,4.22
2022-12-08T14:56:52.339Z,4.25
2022-12-08T14:59:36.692Z,4.19
2022-12-08T15:02:14.345Z,4.15
2022-12-08T15:04:47.798Z,4.18
2022-12-08T15:07:18.444Z,4.21
2022-12-08T15:09:49.230Z,4.33
2022-12-08T15:12:26.176Z,4.35
2022-12-08T15:15:17.720Z,4.42
2022-12-08T15:18:01.032Z,4.41
2022-12-08T15:20:44.227Z,4.32
2022-12-08T15:23:38.543Z,4.23
2022-12-08T15:26:05.863Z,4.32
2022-12-08T15:28:33.017Z,4.42
2022-12-08T15:31:00.351Z,4.41
2022-12-08T15:33:27.654Z,4.43
2022-12-08T15:35:54.531Z,4.38
2022-12-08T15:38:26.763Z,4.52
2022-12-08T15:40:54.970Z,4.49
2022-12-08T15:43:22.730Z,4.41
2022-12-08T15:45:59.031Z,4.42
2022-12-08T15:48:29.641Z,4.38
2022-12-08T15:50:57.448Z,4.32
2022-12-08T15:53:24.428Z,4.22
2022-12-08T15:56:26.414Z,4.06
2022-12-08T15:58:53.426Z,4.02
2022-12-08T16:01:22.199Z,3.73
2022-12-08T16:07:19.658Z,3.56
2022-12-08T16:09:32.427Z,3.42
2022-12-08T16:12:18.341Z,3.23
2022-12-08T16:17:32.691Z,3.27
2022-12-08T16:20:00.110Z,3.30
2022-12-08T16:25:22.978Z,3.22
2022-12-08T16:28:08.262Z,3.16
2022-12-08T16:30:39.683Z,3.18
2022-12-08T16:33:06.938Z,3.19
2022-12-08T16:35:33.946Z,3.02
2022-12-08T16:38:00.993Z,3.05
2022-12-08T16:40:28.117Z,2.96
2022-12-08T16:42:55.161Z,2.94
2022-12-08T16:45:28.223Z,2.83
2022-12-08T16:47:58.164Z,2.73
2022-12-08T16:50:29.566Z,2.74
2022-12-08T16:53:04.880Z,2.74
2022-12-08T16:55:32.674Z,2.85
2022-12-08T16:58:04.468Z,2.80
2022-12-08T17:00:37.127Z,2.73
2022-12-08T17:03:05.919Z,2.71
2022-12-08T17:05:32.594Z,2.74
2022-12-08T17:08:00.102Z,2.77
2022-12-08T17:10:32.344Z,2.73
2022-12-08T17:12:59.329Z,2.67
2022-12-08T17:15:42.968Z,2.65
2022-12-08T17:18:09.944Z,2.54
2022-12-08T17:20:37.423Z,2.61
2022-12-08T17:23:09.478Z,2.64
2022-12-08T17:25:42.723Z,2.64
2022-12-08T17:28:09.947Z,2.71
2022-12-08T17:30:37.208Z,2.65
2022-12-08T17:33:04.317Z,2.73
2022-12-08T17:35:31.566Z,2.73
2022-12-08T17:37:58.167Z,2.64
2022-12-08T17:40:28.247Z,2.61
2022-12-08T17:42:55.663Z,2.60
2022-12-08T17:45:22.500Z,2.60
2022-12-08T17:47:49.443Z,2.61
2022-12-08T17:50:16.613Z,2.64
2022-12-08T17:52:43.463Z,2.67
2022-12-08T17:55:11.286Z,2.60
2022-12-08T17:57:38.116Z,2.56
2022-12-08T18:00:06.028Z,2.56
2022-12-08T18:02:33.929Z,2.53
2022-12-08T18:05:00.589Z,2.56
2022-12-08T18:07:27.394Z,2.53
2022-12-08T18:09:56.837Z,2.48
2022-12-08T18:12:24.085Z,2.53
2022-12-08T18:14:52.476Z,2.47
2022-12-08T18:17:19.454Z,2.48
2022-12-08T18:19:55.734Z,2.50
2022-12-08T18:22:22.491Z,2.61
2022-12-08T18:24:49.311Z,2.62
2022-12-08T18:27:15.955Z,2.74
2022-12-08T18:29:43.186Z,2.77
2022-12-08T18:32:09.885Z,2.75
2022-12-08T18:34:36.796Z,2.87
2022-12-08T18:37:04.081Z,2.87
2022-12-08T18:39:32.936Z,2.94
2022-12-08T18:42:02.772Z,2.85
2022-12-08T18:44:30.661Z,2.78
2022-12-08T18:46:57.327Z,2.83
2022-12-08T18:49:24.428Z,2.65
2022-12-08T18:51:51.328Z,2.65
2022-12-08T18:54:18.068Z,2.68
2022-12-08T18:56:45.078Z,2.78
2022-12-08T18:59:12.451Z,2.67
2022-12-08T19:01:40.991Z,2.74
2022-12-08T19:04:27.897Z,2.71
2022-12-08T19:06:56.642Z,2.68
2022-12-08T19:09:24.612Z,2.68
2022-12-08T19:11:51.300Z,2.67
2022-12-08T19:14:22.608Z,2.57
2022-12-08T19:16:52.491Z,2.54
2022-12-08T19:19:19.613Z,2.67
2022-12-08T19:21:46.880Z,2.57
2022-12-08T19:24:13.797Z,2.44
2022-12-08T19:26:40.945Z,2.51
2022-12-08T19:29:07.715Z,2.43
2022-12-08T19:31:34.389Z,2.36
2022-12-08T19:34:01.677Z,2.32
2022-12-08T19:36:31.802Z,2.23
2022-12-08T19:39:17.299Z,2.15
2022-12-08T19:42:03.014Z,2.15
2022-12-08T19:44:49.282Z,2.13
2022-12-08T19:47:16.217Z,2.20
2022-12-08T19:49:44.097Z,2.25
2022-12-08T19:52:11.087Z,2.27
2022-12-08T19:54:40.726Z,2.38
2022-12-08T19:57:07.362Z,2.47
2022-12-08T19:59:34.520Z,2.57
2022-12-08T20:02:01.728Z,2.53
2022-12-08T20:04:29.041Z,2.62
2022-12-08T20:06:57.729Z,2.62
2022-12-08T20:09:25.104Z,2.61
2022-12-08T20:11:54.997Z,2.62
2022-12-08T20:14:23.409Z,2.67
2022-12-08T20:16:51.234Z,2.70
2022-12-08T20:19:18.758Z,2.80
2022-12-08T20:21:45.436Z,2.65
2022-12-08T20:24:12.128Z,2.67
2022-12-08T20:26:38.934Z,2.73
2022-12-08T20:29:06.689Z,2.70
2022-12-08T20:31:34.311Z,2.65
2022-12-08T20:34:01.185Z,2.64
2022-12-08T20:36:28.872Z,2.67
2022-12-08T20:38:56.549Z,2.74
2022-12-08T20:41:23.847Z,2.70
2022-12-08T20:43:51.670Z,2.71
2022-12-08T20:46:20.094Z,2.78
2022-12-08T20:48:47.871Z,2.94
2022-12-08T20:51:20.282Z,3.05
2022-12-08T20:53:47.522Z,3.12
2022-12-08T20:56:19.425Z,3.16
2022-12-08T20:58:47.078Z,3.22
2022-12-08T21:01:16.522Z,3.25
2022-12-08T21:03:45.593Z,3.25
2022-12-08T21:06:13.067Z,3.22
2022-12-08T21:08:40.796Z,3.18
2022-12-08T21:11:08.607Z,3.20
2022-12-08T21:13:37.705Z,3.09
2022-12-08T21:16:05.505Z,3.04
2022-12-08T21:18:38.985Z,3.02
2022-12-08T21:21:12.613Z,3.08
2022-12-08T21:23:40.223Z,3.11
2022-12-08T21:26:13.429Z,3.11
2022-12-08T21:28:40.662Z,3.15
2022-12-08T21:31:09.876Z,3.32
2022-12-08T21:33:37.243Z,3.26
2022-12-08T21:36:09.057Z,3.23
2022-12-08T21:38:37.508Z,3.25
2022-12-08T21:41:06.095Z,3.18
2022-12-08T21:43:33.532Z,3.12
2022-12-08T21:46:01.417Z,3.06
2022-12-08T21:48:28.636Z,2.98
2022-12-08T21:50:57.124Z,2.95
2022-12-08T21:53:26.588Z,2.87
2022-12-08T21:55:53.515Z,2.83
2022-12-08T21:58:20.397Z,2.87
2022-12-08T22:00:47.269Z,2.91
2022-12-08T22:03:15.476Z,2.96
2022-12-08T22:05:42.832Z,3.05
2022-12-08T22:08:09.672Z,3.09
